Time;durP1;ratioP1;P1;durP2;ratioP2;P2;SDS_P1;SDS_P2;PMS_P1;PMS_P2;Temp;Humidity;BMP_temperature;BMP_pressure;BME280_temperature;BME280_humidity;BME280_pressure;Samples;Min_cycle;Max_cycle;Signal;HPM_P1;HPM_P2
2022/11/24 00:02:24;;;;;;;37.13;21.92;;;6.60;99.90;;;;;;6070773;23;20065;-82
2022/11/24 00:04:52;;;;;;;36.90;21.95;;;6.70;99.90;;;;;;6060062;23;20023;-82
2022/11/24 00:07:19;;;;;;;37.92;22.67;;;6.70;99.90;;;;;;6072093;23;20014;-81
2022/11/24 00:09:46;;;;;;;39.55;22.05;;;6.60;99.90;;;;;;6071953;23;20022;-84
2022/11/24 00:12:15;;;;;;;42.05;24.25;;;6.70;99.90;;;;;;6070985;23;20470;-83
2022/11/24 00:14:43;;;;;;;36.15;20.85;;;6.70;99.90;;;;;;6073261;23;20034;-83
2022/11/24 00:17:10;;;;;;;34.33;19.98;;;6.70;99.90;;;;;;6064895;23;20026;-84
2022/11/24 00:19:38;;;;;;;38.70;21.70;;;6.70;99.90;;;;;;6065275;23;20073;-83
2022/11/24 00:22:05;;;;;;;36.97;21.05;;;6.70;99.90;;;;;;6076490;23;20015;-83
2022/11/24 00:24:32;;;;;;;38.83;22.00;;;6.70;99.90;;;;;;6062631;23;20019;-84
2022/11/24 00:27:00;;;;;;;35.63;21.67;;;6.80;99.90;;;;;;6063230;23;20339;-83
2022/11/24 00:29:28;;;;;;;39.75;21.02;;;6.70;99.90;;;;;;6061468;23;20026;-80
2022/11/24 00:31:57;;;;;;;37.25;22.13;;;6.70;99.90;;;;;;6073997;23;20051;-81
2022/11/24 00:34:24;;;;;;;36.65;21.63;;;6.70;99.90;;;;;;6074438;23;20021;-81
2022/11/24 00:36:51;;;;;;;43.47;25.05;;;6.70;99.90;;;;;;6074468;23;20022;-81
2022/11/24 00:39:19;;;;;;;43.25;24.38;;;6.60;99.90;;;;;;6072523;23;20030;-80
2022/11/24 00:41:46;;;;;;;32.60;19.30;;;6.60;99.90;;;;;;6070374;23;20015;-82
2022/11/24 00:44:14;;;;;;;29.58;18.48;;;6.60;99.90;;;;;;6071698;23;20343;-82
2022/11/24 00:46:42;;;;;;;31.67;19.75;;;6.60;99.90;;;;;;6072826;23;20019;-80
2022/11/24 00:49:10;;;;;;;27.50;18.33;;;6.50;99.90;;;;;;6088334;23;20014;-81
2022/11/24 00:51:38;;;;;;;30.20;19.48;;;6.50;99.90;;;;;;6087082;23;20021;-82
2022/11/24 00:54:06;;;;;;;28.10;18.33;;;6.40;99.90;;;;;;6085787;23;20064;-82
2022/11/24 00:56:33;;;;;;;36.10;21.40;;;6.50;99.90;;;;;;6085777;23;20038;-81
2022/11/24 00:59:01;;;;;;;29.45;21.08;;;6.50;99.90;;;;;;6081356;23;20034;-81
2022/11/24 01:01:30;;;;;;;28.33;20.20;;;6.50;99.90;;;;;;6070146;23;20023;-80
2022/11/24 01:04:00;;;;;;;33.25;19.52;;;6.50;99.90;;;;;;6070594;23;20015;-80
2022/11/24 01:06:29;;;;;;;35.30;20.42;;;6.50;99.90;;;;;;6070858;23;20475;-81
2022/11/24 01:08:57;;;;;;;28.85;19.42;;;6.50;99.90;;;;;;6070828;23;20022;-80
2022/11/24 01:11:26;;;;;;;32.42;19.98;;;6.50;99.90;;;;;;6070575;23;20482;-80
2022/11/24 01:13:57;;;;;;;32.95;20.13;;;6.60;99.90;;;;;;6071315;23;20029;-80
2022/11/24 01:16:26;;;;;;;29.67;19.35;;;6.60;99.90;;;;;;6071019;23;20030;-82
2022/11/24 01:18:54;;;;;;;37.67;22.08;;;6.60;99.90;;;;;;6070639;23;20085;-79
2022/11/24 01:21:23;;;;;;;36.45;22.67;;;6.60;99.90;;;;;;6070272;23;20105;-82
2022/11/24 01:23:50;;;;;;;35.97;22.25;;;6.60;99.90;;;;;;6071792;23;20019;-80
2022/11/24 01:26:20;;;;;;;36.38;23.02;;;6.50;99.90;;;;;;6070422;23;20050;-79
2022/11/24 01:28:52;;;;;;;36.72;23.83;;;6.50;99.90;;;;;;6035761;23;20195;-79
2022/11/24 01:31:19;;;;;;;37.38;23.45;;;6.60;99.90;;;;;;6070243;23;20019;-79
2022/11/24 01:33:46;;;;;;;37.58;23.23;;;6.60;99.90;;;;;;6071104;23;20022;-80
2022/11/24 01:36:14;;;;;;;38.20;23.40;;;6.60;99.90;;;;;;6072181;23;20023;-80
2022/11/24 01:38:43;;;;;;;39.65;24.42;;;6.60;99.90;;;;;;6071524;23;20064;-79
2022/11/24 01:41:12;;;;;;;40.97;26.35;;;6.70;99.90;;;;;;6076055;23;20019;-80
2022/11/24 01:43:40;;;;;;;50.17;27.83;;;6.60;99.90;;;;;;6077847;23;20015;-80
2022/11/24 01:46:17;;;;;;;42.67;24.73;;;6.60;99.90;;;;;;6048587;23;20372;-79
2022/11/24 01:48:48;;;;;;;36.08;23.10;;;6.60;99.90;;;;;;6076641;23;20018;-81
2022/11/24 01:51:20;;;;;;;38.58;23.77;;;6.60;99.90;;;;;;6072989;23;20089;-80
2022/11/24 01:53:56;;;;;;;38.25;23.40;;;6.60;99.90;;;;;;6070822;23;20019;-80
2022/11/24 01:56:24;;;;;;;38.58;24.75;;;6.70;99.90;;;;;;6070872;23;20026;-79
2022/11/24 01:58:57;;;;;;;29.58;20.15;;;6.60;99.90;;;;;;6071195;23;20102;-79
2022/11/24 02:01:25;;;;;;;37.72;22.25;;;6.60;99.90;;;;;;6069877;23;20440;-81
2022/11/24 02:03:52;;;;;;;36.25;22.23;;;6.60;99.90;;;;;;6070230;23;20021;-81
2022/11/24 02:06:23;;;;;;;35.47;21.98;;;6.60;99.90;;;;;;6070619;23;20348;-81
2022/11/24 02:08:57;;;;;;;30.05;20.45;;;6.60;99.90;;;;;;6075629;23;20019;-81
2022/11/24 02:11:28;;;;;;;27.23;19.60;;;6.60;99.90;;;;;;6095489;23;20001;-79
2022/11/24 02:13:57;;;;;;;33.33;20.55;;;6.60;99.90;;;;;;6059739;23;20019;-81
2022/11/24 02:16:25;;;;;;;34.40;22.25;;;6.50;99.90;;;;;;6096221;23;20034;-81
2022/11/24 02:18:52;;;;;;;33.55;21.70;;;6.40;99.90;;;;;;6096863;23;20042;-80
2022/11/24 02:21:20;;;;;;;34.58;21.77;;;6.30;99.90;;;;;;6074990;23;20366;-80
2022/11/24 02:23:56;;;;;;;36.55;22.35;;;6.20;99.90;;;;;;6036146;23;20088;-80
2022/11/24 02:26:38;;;;;;;37.67;23.08;;;6.20;99.90;;;;;;6070786;23;20019;-80
2022/11/24 02:29:06;;;;;;;68.57;40.17;;;6.10;99.90;;;;;;6071664;23;20077;-80
2022/11/24 02:31:33;;;;;;;45.92;28.90;;;6.00;99.90;;;;;;6036156;23;20061;-81
2022/11/24 02:34:02;;;;;;;40.00;25.33;;;6.00;99.90;;;;;;6071400;23;20447;-80
2022/11/24 02:36:29;;;;;;;40.95;24.20;;;5.90;99.90;;;;;;6070623;23;20474;-80
2022/11/24 02:38:57;;;;;;;36.42;23.98;;;5.80;99.90;;;;;;6070218;23;20053;-79
2022/11/24 02:41:26;;;;;;;45.25;27.73;;;5.70;99.90;;;;;;6069393;23;20073;-79
2022/11/24 02:43:56;;;;;;;51.40;30.88;;;5.60;99.90;;;;;;6070030;23;20022;-81
2022/11/24 02:46:24;;;;;;;62.78;35.97;;;5.40;99.90;;;;;;6070435;23;20023;-79
2022/11/24 02:48:51;;;;;;;62.10;36.53;;;5.30;99.90;;;;;;6069917;23;20030;-80
2022/11/24 02:51:19;;;;;;;54.65;33.70;;;5.20;99.90;;;;;;6069705;23;20026;-79
2022/11/24 02:53:46;;;;;;;65.70;41.05;;;5.10;99.90;;;;;;6069916;23;20019;-80
2022/11/24 02:56:14;;;;;;;65.00;38.85;;;5.10;99.90;;;;;;6070157;23;20087;-82
2022/11/24 02:58:41;;;;;;;58.60;35.50;;;5.00;99.90;;;;;;6069871;23;20011;-80
2022/11/24 03:01:10;;;;;;;57.90;35.25;;;4.90;99.90;;;;;;6069297;23;20444;-81
2022/11/24 03:03:37;;;;;;;60.03;33.47;;;4.80;99.90;;;;;;6069799;23;20026;-80
2022/11/24 03:06:05;;;;;;;48.42;29.25;;;4.70;99.90;;;;;;6069765;23;20065;-78
2022/11/24 03:08:32;;;;;;;50.35;29.25;;;4.70;99.90;;;;;;6069765;23;20093;-81
2022/11/24 03:11:01;;;;;;;47.70;28.70;;;4.70;99.90;;;;;;6070180;23;20347;-79
2022/11/24 03:13:29;;;;;;;44.92;27.95;;;4.60;99.90;;;;;;6070101;23;20022;-81
2022/11/24 03:15:56;;;;;;;54.00;30.17;;;4.50;99.90;;;;;;6035815;23;20348;-81
2022/11/24 03:18:25;;;;;;;53.13;31.33;;;4.40;99.90;;;;;;6071490;23;20058;-79
2022/11/24 03:20:52;;;;;;;48.17;30.00;;;4.30;99.90;;;;;;6071265;23;20019;-81
2022/11/24 03:23:19;;;;;;;42.72;28.73;;;4.30;99.90;;;;;;6070239;23;20033;-81
2022/11/24 03:25:47;;;;;;;45.25;28.17;;;4.20;99.90;;;;;;6071263;23;20027;-82
2022/11/24 03:28:14;;;;;;;38.45;26.02;;;4.10;99.90;;;;;;6070828;23;20029;-81
2022/11/24 03:30:41;;;;;;;42.20;28.90;;;4.00;99.90;;;;;;6071220;23;20026;-80
2022/11/24 03:33:08;;;;;;;37.80;24.55;;;4.00;99.90;;;;;;6070240;23;20431;-80
2022/11/24 03:35:37;;;;;;;32.33;22.52;;;4.00;99.90;;;;;;6071508;23;20017;-81
2022/11/24 03:38:05;;;;;;;38.67;23.80;;;4.10;99.90;;;;;;6071514;23;20015;-80
2022/11/24 03:40:32;;;;;;;32.83;22.63;;;4.10;99.90;;;;;;6078770;23;20050;-79
2022/11/24 03:42:59;;;;;;;36.83;23.75;;;4.00;99.90;;;;;;6047247;23;20019;-81
2022/11/24 03:45:26;;;;;;;36.38;24.02;;;3.90;99.90;;;;;;6043221;23;20011;-80
2022/11/24 03:47:54;;;;;;;41.30;24.83;;;3.90;99.90;;;;;;6042832;23;20030;-79
2022/11/24 03:50:21;;;;;;;42.40;25.45;;;3.80;99.90;;;;;;6042344;23;20070;-79
2022/11/24 03:52:50;;;;;;;37.42;25.40;;;3.70;99.90;;;;;;6041610;23;20015;-80
2022/11/24 03:55:17;;;;;;;37.17;24.58;;;3.60;99.90;;;;;;6042167;23;20019;-80
2022/11/24 03:57:45;;;;;;;36.60;23.83;;;3.60;99.90;;;;;;6042216;23;20023;-81
2022/11/24 04:00:13;;;;;;;39.53;25.38;;;3.60;99.90;;;;;;6042152;23;20019;-81
2022/11/24 04:02:40;;;;;;;38.13;23.95;;;3.60;99.90;;;;;;6041348;23;20022;-80
2022/11/24 04:05:08;;;;;;;37.40;25.00;;;3.50;99.90;;;;;;6007958;23;20078;-81
2022/11/24 04:07:35;;;;;;;44.78;26.60;;;3.40;99.90;;;;;;6007808;23;20015;-80
2022/11/24 04:10:05;;;;;;;45.78;28.60;;;3.40;99.90;;;;;;6042192;23;20070;-79
2022/11/24 04:12:43;;;;;;;44.03;28.45;;;3.40;99.90;;;;;;6006535;23;20019;-81
2022/11/24 04:15:11;;;;;;;46.70;27.48;;;3.30;99.90;;;;;;6042258;23;20448;-82
2022/11/24 04:17:38;;;;;;;47.95;28.38;;;3.20;99.90;;;;;;6042052;23;20030;-83
2022/11/24 04:20:07;;;;;;;52.00;32.47;;;3.20;99.90;;;;;;6042381;23;20016;-81
2022/11/24 04:22:34;;;;;;;39.65;25.27;;;3.20;99.90;;;;;;6047666;23;20023;-80
2022/11/24 04:25:01;;;;;;;38.55;23.08;;;3.20;99.90;;;;;;6063867;23;20015;-80
2022/11/24 04:27:30;;;;;;;35.00;21.88;;;3.20;99.90;;;;;;6050124;23;20078;-81
2022/11/24 04:29:57;;;;;;;45.53;27.70;;;3.20;99.90;;;;;;6042398;23;20432;-79
2022/11/24 04:32:25;;;;;;;46.80;28.88;;;3.20;99.90;;;;;;6041632;23;20020;-79
2022/11/24 04:34:53;;;;;;;51.28;30.23;;;3.30;99.90;;;;;;6007835;23;20026;-80
2022/11/24 04:37:20;;;;;;;49.67;28.00;;;3.30;99.90;;;;;;6042214;23;20108;-82
2022/11/24 04:39:47;;;;;;;37.72;22.65;;;3.40;99.90;;;;;;6041976;23;20018;-81
2022/11/24 04:42:14;;;;;;;34.88;21.27;;;3.40;99.90;;;;;;6041261;23;20036;-80
2022/11/24 04:44:43;;;;;;;36.25;20.20;;;3.50;99.90;;;;;;6070847;23;20019;-80
2022/11/24 04:47:15;;;;;;;28.55;19.50;;;3.40;99.90;;;;;;6059944;23;20343;-81
2022/11/24 04:49:42;;;;;;;42.10;27.08;;;3.40;99.90;;;;;;6059284;23;20023;-79
2022/11/24 04:52:11;;;;;;;38.55;24.67;;;3.50;99.90;;;;;;6069835;23;20022;-80
2022/11/24 04:54:38;;;;;;;49.17;30.10;;;3.40;99.90;;;;;;6069336;23;20015;-80
2022/11/24 04:57:06;;;;;;;58.13;35.58;;;3.50;99.90;;;;;;6068470;23;20359;-79
2022/11/24 04:59:33;;;;;;;83.10;42.75;;;3.60;99.90;;;;;;6068809;23;20026;-81
2022/11/24 05:02:02;;;;;;;86.32;45.28;;;3.60;99.90;;;;;;6067987;23;20019;-80
2022/11/24 05:04:30;;;;;;;69.78;40.22;;;3.50;99.90;;;;;;6068300;23;20031;-81
2022/11/24 05:06:58;;;;;;;60.92;37.92;;;3.50;99.90;;;;;;6068586;23;20068;-81
2022/11/24 05:09:25;;;;;;;57.78;37.72;;;3.40;99.90;;;;;;6068526;23;20042;-81
2022/11/24 05:11:52;;;;;;;59.45;35.67;;;3.40;99.90;;;;;;6069176;23;20458;-82
2022/11/24 05:14:20;;;;;;;50.65;32.70;;;3.40;99.90;;;;;;6070702;23;20050;-82
2022/11/24 05:16:47;;;;;;;48.15;30.65;;;3.40;99.90;;;;;;6059914;23;20098;-82
2022/11/24 05:19:16;;;;;;;45.30;26.85;;;3.50;99.90;;;;;;6070834;23;20022;-83
2022/11/24 05:21:43;;;;;;;48.13;30.27;;;3.60;99.90;;;;;;6069655;23;20011;-80
2022/11/24 05:24:11;;;;;;;63.00;36.80;;;3.60;99.90;;;;;;6070273;23;20073;-81
2022/11/24 05:26:38;;;;;;;53.80;34.25;;;3.70;99.90;;;;;;6070583;23;20022;-80
2022/11/24 05:29:06;;;;;;;54.90;33.03;;;3.70;99.90;;;;;;6071414;23;20026;-81
2022/11/24 05:31:33;;;;;;;54.08;35.58;;;3.80;99.90;;;;;;6072483;23;20086;-81
2022/11/24 05:34:00;;;;;;;55.42;33.33;;;3.80;99.90;;;;;;6072033;23;20018;-81
2022/11/24 05:39:13;;;;;;;58.55;34.88;;;3.90;99.90;;;;;;6072710;23;20079;-82
2022/11/24 05:41:42;;;;;;;59.45;34.15;;;3.90;99.90;;;;;;6076226;23;20019;-81
2022/11/24 05:44:09;;;;;;;51.53;31.77;;;3.90;99.90;;;;;;6079911;23;20015;-83
2022/11/24 05:46:37;;;;;;;56.70;35.60;;;3.90;99.90;;;;;;6078446;23;20015;-79
2022/11/24 05:49:04;;;;;;;67.55;39.97;;;4.00;99.90;;;;;;6070748;23;20026;-83
2022/11/24 05:51:33;;;;;;;65.50;36.10;;;3.90;99.90;;;;;;6070196;23;20495;-82
2022/11/24 05:54:01;;;;;;;60.42;37.17;;;3.90;99.90;;;;;;6036362;23;20113;-81
2022/11/24 05:56:28;;;;;;;52.10;32.78;;;4.00;99.90;;;;;;6071157;23;20011;-80
2022/11/24 05:58:55;;;;;;;49.83;31.52;;;4.00;99.90;;;;;;6070959;23;20015;-80
2022/11/24 06:01:22;;;;;;;46.67;29.23;;;4.10;99.90;;;;;;6069766;23;20045;-80
2022/11/24 06:03:50;;;;;;;44.83;28.20;;;4.10;99.90;;;;;;6035609;23;20486;-80
2022/11/24 06:06:17;;;;;;;52.65;30.13;;;4.10;99.90;;;;;;6070566;23;20046;-79
2022/11/24 06:08:46;;;;;;;52.30;31.60;;;4.10;99.90;;;;;;6070011;23;20685;-82
2022/11/24 06:11:19;;;;;;;50.80;32.88;;;4.10;99.90;;;;;;6035192;23;20451;-81
2022/11/24 06:13:48;;;;;;;58.08;37.75;;;4.00;99.90;;;;;;6070394;23;20015;-81
2022/11/24 06:16:15;;;;;;;67.03;40.65;;;4.00;99.90;;;;;;6070636;23;20015;-81
2022/11/24 06:18:43;;;;;;;74.63;46.03;;;3.90;99.90;;;;;;6035575;23;20030;-79
2022/11/24 06:21:11;;;;;;;63.45;40.25;;;4.00;99.90;;;;;;6069506;23;20011;-80
2022/11/24 06:23:38;;;;;;;73.93;49.40;;;4.00;99.90;;;;;;6071310;23;20011;-80
2022/11/24 06:26:08;;;;;;;88.40;58.67;;;4.10;99.90;;;;;;6071101;23;20042;-80
2022/11/24 06:28:35;;;;;;;81.15;51.63;;;4.20;99.90;;;;;;6070629;23;20023;-79
2022/11/24 06:31:03;;;;;;;86.53;53.28;;;4.10;99.90;;;;;;6035043;23;20102;-79
2022/11/24 06:33:32;;;;;;;82.30;50.53;;;4.20;99.90;;;;;;6068694;23;20042;-80
2022/11/24 06:36:02;;;;;;;83.07;49.80;;;4.20;99.90;;;;;;6070023;23;20019;-82
2022/11/24 06:38:30;;;;;;;84.93;50.08;;;4.30;99.90;;;;;;6070817;23;20065;-81
2022/11/24 06:41:01;;;;;;;86.63;48.90;;;4.40;99.90;;;;;;6070718;23;20030;-80
2022/11/24 06:43:30;;;;;;;73.28;44.70;;;4.40;99.90;;;;;;6071069;23;20015;-78
2022/11/24 06:45:58;;;;;;;80.78;49.42;;;4.50;99.90;;;;;;6070913;23;20023;-79
2022/11/24 06:48:26;;;;;;;93.97;53.45;;;4.50;99.90;;;;;;6071162;23;20062;-81
2022/11/24 06:50:58;;;;;;;87.60;51.83;;;4.50;99.90;;;;;;6070430;23;20018;-79
2022/11/24 06:53:25;;;;;;;104.22;66.07;;;4.40;99.90;;;;;;6035796;23;20027;-79
2022/11/24 06:55:54;;;;;;;85.53;51.65;;;4.50;99.90;;;;;;6074997;23;20014;-81
2022/11/24 06:58:21;;;;;;;81.10;52.53;;;4.50;99.90;;;;;;6077910;23;20015;-80
2022/11/24 07:00:50;;;;;;;81.25;52.30;;;4.50;99.90;;;;;;6038921;23;20018;-78
2022/11/24 07:03:18;;;;;;;66.25;41.30;;;4.50;99.90;;;;;;6079767;23;20023;-80
2022/11/24 07:05:45;;;;;;;56.10;35.83;;;4.60;99.90;;;;;;6089066;23;20026;-79
2022/11/24 07:08:13;;;;;;;66.10;39.92;;;4.60;99.90;;;;;;6076874;23;20019;-79
2022/11/24 07:10:41;;;;;;;63.88;38.65;;;4.60;99.90;;;;;;6079461;23;20081;-79
2022/11/24 07:13:08;;;;;;;69.13;42.72;;;4.70;99.90;;;;;;6034551;23;20118;-81
2022/11/24 07:15:36;;;;;;;73.25;44.00;;;4.80;99.90;;;;;;6070292;23;20023;-79
2022/11/24 07:18:05;;;;;;;77.40;46.28;;;4.80;99.90;;;;;;6069654;23;20138;-79
2022/11/24 07:20:32;;;;;;;73.50;43.78;;;4.80;99.90;;;;;;6070721;23;20436;-79
2022/11/24 07:23:00;;;;;;;76.13;46.63;;;4.90;99.90;;;;;;6069481;23;20015;-78
2022/11/24 07:25:32;;;;;;;102.00;58.58;;;4.90;99.90;;;;;;6070440;23;20023;-80
2022/11/24 07:28:00;;;;;;;93.38;54.85;;;5.00;99.90;;;;;;6070082;23;20015;-78
2022/11/24 07:30:28;;;;;;;99.03;56.47;;;5.10;99.90;;;;;;6034635;23;20023;-79
2022/11/24 07:32:59;;;;;;;86.15;55.22;;;5.20;99.90;;;;;;6034286;23;20351;-77
2022/11/24 07:35:28;;;;;;;109.45;62.35;;;5.30;99.90;;;;;;6070985;23;20023;-78
2022/11/24 07:37:56;;;;;;;125.95;71.63;;;5.30;99.90;;;;;;6038337;23;20034;-78
2022/11/24 07:40:24;;;;;;;128.02;73.82;;;5.40;99.90;;;;;;6075937;23;20017;-79
2022/11/24 07:42:52;;;;;;;135.52;77.30;;;5.50;99.90;;;;;;6069620;23;20482;-77
2022/11/24 07:45:19;;;;;;;133.73;76.82;;;5.60;99.90;;;;;;6070286;23;20028;-78
2022/11/24 07:47:46;;;;;;;124.35;73.32;;;5.70;99.90;;;;;;6034744;23;20027;-79
2022/11/24 07:50:14;;;;;;;134.48;76.78;;;5.60;99.90;;;;;;6068406;23;20019;-78
2022/11/24 07:52:42;;;;;;;127.03;71.28;;;5.70;99.90;;;;;;6068538;23;20510;-79
2022/11/24 07:55:10;;;;;;;121.57;67.10;;;5.80;99.90;;;;;;6069457;23;20046;-79
2022/11/24 07:57:37;;;;;;;105.05;65.85;;;5.90;99.90;;;;;;6069186;23;20019;-77
2022/11/24 08:00:06;;;;;;;113.53;66.43;;;6.00;99.90;;;;;;6068789;23;20026;-78
2022/11/24 08:02:33;;;;;;;116.07;67.05;;;6.00;99.90;;;;;;6069204;23;20094;-78
2022/11/24 08:05:01;;;;;;;113.15;63.65;;;6.00;99.90;;;;;;6070126;23;20077;-76
2022/11/24 08:07:28;;;;;;;116.68;68.10;;;6.10;99.90;;;;;;6070937;23;20023;-78
2022/11/24 08:09:57;;;;;;;114.65;64.95;;;6.20;99.90;;;;;;6070695;23;20019;-77
2022/11/24 08:12:24;;;;;;;111.65;65.38;;;6.30;99.90;;;;;;6069792;23;20019;-77
2022/11/24 08:14:51;;;;;;;103.43;60.15;;;6.50;99.90;;;;;;6071153;23;20019;-76
2022/11/24 08:17:19;;;;;;;96.13;60.58;;;6.50;99.90;;;;;;6035948;23;20114;-80
2022/11/24 08:19:46;;;;;;;97.72;59.67;;;6.70;99.90;;;;;;6071166;23;20042;-78
2022/11/24 08:22:13;;;;;;;100.93;58.45;;;6.80;99.90;;;;;;6069662;23;20069;-76
2022/11/24 08:24:45;;;;;;;96.18;54.65;;;6.80;99.90;;;;;;6070836;23;20383;-78
2022/11/24 08:27:15;;;;;;;85.53;52.53;;;6.90;99.90;;;;;;6070897;23;20047;-78
2022/11/24 08:29:42;;;;;;;85.80;49.92;;;7.00;99.90;;;;;;6070726;23;20026;-76
2022/11/24 08:32:10;;;;;;;84.45;50.85;;;7.10;99.90;;;;;;6070286;23;20439;-78
2022/11/24 08:34:38;;;;;;;84.85;51.20;;;7.20;99.90;;;;;;6070745;23;20015;-78
2022/11/24 08:37:06;;;;;;;77.25;49.08;;;7.30;99.90;;;;;;6071617;23;20492;-78
2022/11/24 08:39:33;;;;;;;83.72;47.63;;;7.40;99.90;;;;;;6077193;23;20383;-76
2022/11/24 08:42:00;;;;;;;77.15;46.75;;;7.40;99.90;;;;;;6070140;23;20525;-76
2022/11/24 08:44:29;;;;;;;76.47;45.08;;;7.40;99.90;;;;;;6071268;23;20023;-76
2022/11/24 08:46:57;;;;;;;68.22;44.30;;;7.40;99.90;;;;;;6071405;23;20027;-77
2022/11/24 08:49:24;;;;;;;71.63;46.45;;;7.40;99.90;;;;;;6070501;23;20026;-78
2022/11/24 08:51:51;;;;;;;79.65;45.80;;;7.40;99.90;;;;;;6069842;23;20019;-77
2022/11/24 08:54:20;;;;;;;74.82;45.50;;;7.50;99.90;;;;;;6070544;23;20023;-77
2022/11/24 08:56:49;;;;;;;75.20;45.33;;;7.60;99.90;;;;;;6070542;23;20019;-77
2022/11/24 08:59:17;;;;;;;89.55;54.10;;;7.50;99.90;;;;;;6070842;23;20119;-76
2022/11/24 09:01:45;;;;;;;112.85;66.63;;;7.60;99.90;;;;;;6070414;23;20025;-78
2022/11/24 09:04:12;;;;;;;102.00;61.08;;;7.70;99.90;;;;;;6071115;23;20069;-76
2022/11/24 09:06:40;;;;;;;83.05;51.58;;;7.80;99.90;;;;;;6070286;23;20018;-78
2022/11/24 09:09:07;;;;;;;82.45;49.67;;;7.90;99.90;;;;;;6070854;23;20026;-78
2022/11/24 09:11:35;;;;;;;77.22;43.53;;;8.00;99.90;;;;;;6069765;23;20090;-78
2022/11/24 09:14:02;;;;;;;66.00;40.40;;;8.10;99.90;;;;;;6070743;23;20014;-77
2022/11/24 09:16:29;;;;;;;62.38;39.80;;;8.10;99.90;;;;;;6071000;23;20019;-76
2022/11/24 09:18:59;;;;;;;64.05;38.83;;;8.10;99.90;;;;;;6070945;23;20030;-78
2022/11/24 09:21:27;;;;;;;66.22;39.13;;;8.20;99.90;;;;;;6069890;23;20023;-77
2022/11/24 09:23:55;;;;;;;62.15;37.17;;;8.30;99.90;;;;;;6036077;23;20080;-77
2022/11/24 09:26:25;;;;;;;65.00;40.75;;;8.10;99.90;;;;;;6071116;23;20011;-78
2022/11/24 09:28:54;;;;;;;70.28;41.17;;;8.10;99.90;;;;;;6071078;23;20023;-78
2022/11/24 09:31:25;;;;;;;63.65;40.08;;;8.10;99.90;;;;;;6070858;23;20057;-83
2022/11/24 09:33:52;;;;;;;69.38;40.33;;;8.00;99.90;;;;;;6073334;23;20019;-82
2022/11/24 09:36:21;;;;;;;64.65;41.10;;;8.00;99.90;;;;;;6073800;23;20436;-82
2022/11/24 09:38:49;;;;;;;65.60;42.65;;;8.00;99.90;;;;;;6074219;23;20023;-80
2022/11/24 09:41:33;;;;;;;75.43;45.65;;;8.00;99.90;;;;;;6073376;23;20162;-80
2022/11/24 09:44:12;;;;;;;62.47;42.30;;;8.10;99.90;;;;;;6110835;23;20026;-78
2022/11/24 09:46:49;;;;;;;69.60;44.40;;;8.10;99.90;;;;;;6135661;23;20014;-79
2022/11/24 09:49:25;;;;;;;66.35;43.50;;;8.20;99.90;;;;;;6122565;23;20613;-79
2022/11/24 09:51:56;;;;;;;61.92;38.95;;;8.30;99.90;;;;;;6137986;23;20014;-80
2022/11/24 09:54:26;;;;;;;63.40;37.33;;;8.40;99.90;;;;;;6139504;23;20025;-80
2022/11/24 09:56:55;;;;;;;65.68;37.53;;;8.60;99.90;;;;;;6138625;23;20056;-81
2022/11/24 09:59:25;;;;;;;53.55;28.50;;;8.60;99.90;;;;;;6137478;23;20451;-79
2022/11/24 10:01:54;;;;;;;36.63;23.40;;;8.80;99.90;;;;;;6135728;23;20018;-78
2022/11/24 10:04:27;;;;;;;36.20;21.67;;;8.90;99.90;;;;;;6135938;23;20045;-81
2022/11/24 10:07:04;;;;;;;36.75;21.63;;;9.00;99.90;;;;;;6137568;23;20587;-80
2022/11/24 10:09:59;;;;;;;35.22;20.33;;;9.10;99.90;;;;;;6138599;23;20045;-80
2022/11/24 10:12:45;;;;;;;36.28;21.77;;;9.30;99.90;;;;;;6136664;23;20018;-80
2022/11/24 10:15:41;;;;;;;35.35;18.40;;;9.50;99.90;;;;;;6135438;23;20077;-80
2022/11/24 10:18:27;;;;;;;34.33;18.33;;;9.60;99.90;;;;;;6134773;23;20065;-82
2022/11/24 10:21:03;;;;;;;30.55;18.75;;;9.70;99.90;;;;;;6136560;23;20018;-79
2022/11/24 10:23:46;;;;;;;34.97;19.95;;;9.90;49.30;;;;;;6136354;23;20575;-80
2022/11/24 10:26:18;;;;;;;32.55;18.75;;;10.30;70.20;;;;;;6132723;23;20041;-81
2022/11/24 10:28:52;;;;;;;28.33;16.40;;;10.40;60.80;;;;;;6133318;23;20313;-81
2022/11/24 10:31:28;;;;;;;24.92;16.52;;;10.20;54.90;;;;;;6132699;23;20101;-81
2022/11/24 10:33:57;;;;;;;26.35;16.05;;;10.10;95.30;;;;;;6133027;23;20018;-79
2022/11/24 10:36:35;;;;;;;28.13;16.42;;;10.00;96.20;;;;;;6133516;23;20076;-82
2022/11/24 10:39:12;;;;;;;27.33;17.60;;;10.00;98.50;;;;;;6132724;23;20022;-82
2022/11/24 10:41:47;;;;;;;29.85;17.58;;;10.20;99.40;;;;;;6144867;23;20453;-80
2022/11/24 10:44:15;;;;;;;30.33;18.53;;;10.20;97.60;;;;;;6162204;23;20017;-81
2022/11/24 10:46:42;;;;;;;33.70;17.67;;;10.20;99.90;;;;;;6162355;23;20021;-80
2022/11/24 10:49:18;;;;;;;35.75;17.27;;;10.30;98.60;;;;;;6163155;23;20060;-81
2022/11/24 10:51:56;;;;;;;27.50;16.73;;;10.40;1.00;;;;;;6162657;23;20461;-81
2022/11/24 10:54:24;;;;;;;29.52;16.17;;;10.50;91.80;;;;;;6162522;23;20037;-80
2022/11/24 10:56:54;;;;;;;24.20;15.18;;;10.50;91.70;;;;;;6162933;23;20037;-80
2022/11/24 10:59:34;;;;;;;24.98;15.25;;;10.60;92.30;;;;;;6169309;23;20025;-80
2022/11/24 11:02:02;;;;;;;28.50;16.42;;;10.60;16.90;;;;;;6161194;23;20097;-81
2022/11/24 11:04:32;;;;;;;30.15;17.08;;;10.70;1.00;;;;;;6162857;23;20040;-80
2022/11/24 11:07:16;;;;;;;22.70;14.57;;;10.80;88.90;;;;;;6162568;23;20013;-80
2022/11/24 11:09:45;;;;;;;27.58;15.07;;;11.00;74.30;;;;;;6163050;23;20100;-80
2022/11/24 11:12:19;;;;;;;23.48;14.30;;;11.10;58.90;;;;;;6161867;23;20089;-81
2022/11/24 11:14:47;;;;;;;21.58;12.70;;;11.20;57.20;;;;;;6163087;23;20022;-80
2022/11/24 11:17:34;;;;;;;22.67;12.00;;;11.40;50.90;;;;;;6162784;23;20037;-81
2022/11/24 11:20:04;;;;;;;21.38;11.73;;;11.70;56.40;;;;;;6162445;23;20490;-81
2022/11/24 11:22:37;;;;;;;18.13;11.05;;;11.80;69.00;;;;;;6127256;23;20067;-80
2022/11/24 11:25:20;;;;;;;16.35;9.38;;;12.00;99.90;;;;;;6166191;23;20036;-80
2022/11/24 11:27:47;;;;;;;12.88;6.63;;;12.10;99.90;;;;;;6175253;23;20017;-81
2022/11/24 11:30:21;;;;;;;11.20;5.93;;;12.30;99.90;;;;;;6170815;23;20021;-78
2022/11/24 11:32:54;;;;;;;11.75;5.00;;;12.50;99.90;;;;;;6160182;23;20025;-77
2022/11/24 11:35:23;;;;;;;8.43;4.90;;;12.40;99.90;;;;;;6162693;23;20033;-78
2022/11/24 11:37:53;;;;;;;10.60;5.88;;;12.40;99.90;;;;;;6165217;23;20453;-78
2022/11/24 11:40:24;;;;;;;6.70;3.90;;;12.30;99.90;;;;;;6164162;23;20022;-78
2022/11/24 11:42:56;;;;;;;8.98;4.40;;;12.10;99.90;;;;;;6121793;23;20351;-78
2022/11/24 11:45:28;;;;;;;6.70;4.05;;;12.20;99.90;;;;;;6134408;23;20014;-78
2022/11/24 11:48:04;;;;;;;11.65;6.85;;;12.20;99.90;;;;;;6122925;23;20143;-77
2022/11/24 11:50:40;;;;;;;12.30;6.88;;;12.30;99.90;;;;;;6122856;23;20065;-77
2022/11/24 11:53:17;;;;;;;11.38;5.18;;;12.40;99.90;;;;;;6133526;23;20041;-80
2022/11/24 11:55:57;;;;;;;11.73;5.63;;;12.50;99.90;;;;;;6144674;23;20064;-79
2022/11/24 11:58:56;;;;;;;10.90;5.50;;;12.60;99.90;;;;;;6151067;23;20018;-78
2022/11/24 12:01:45;;;;;;;19.48;7.80;;;12.50;99.90;;;;;;6143178;23;20026;-78
2022/11/24 12:04:20;;;;;;;15.52;8.40;;;12.70;99.90;;;;;;6121260;23;20379;-78
2022/11/24 12:07:04;;;;;;;6.95;4.38;;;12.60;99.90;;;;;;6134665;23;20423;-78
2022/11/24 12:09:45;;;;;;;10.07;4.35;;;12.60;99.90;;;;;;6123319;23;20316;-79
2022/11/24 12:12:36;;;;;;;6.90;4.35;;;12.60;99.90;;;;;;6134099;23;20018;-80
2022/11/24 12:15:11;;;;;;;7.50;3.25;;;12.50;99.90;;;;;;6136151;23;20073;-78
2022/11/24 12:17:44;;;;;;;7.10;4.22;;;12.50;99.90;;;;;;6139506;23;20018;-76
2022/11/24 12:20:23;;;;;;;7.70;4.60;;;12.60;99.90;;;;;;6143853;23;20018;-78
2022/11/24 12:23:01;;;;;;;7.20;4.22;;;12.50;99.90;;;;;;6122216;23;20025;-79
2022/11/24 12:25:33;;;;;;;7.45;4.97;;;12.60;99.90;;;;;;6134207;23;20021;-76
2022/11/24 12:28:20;;;;;;;12.13;6.60;;;12.70;99.90;;;;;;6133463;23;20022;-76
2022/11/24 12:30:56;;;;;;;12.50;7.35;;;12.70;99.90;;;;;;6133681;23;20026;-77
2022/11/24 12:33:38;;;;;;;;;;;12.70;99.90;;;;;;6133118;23;20423;-77
2022/11/24 12:36:16;;;;;;;46.80;9.52;;;12.60;99.90;;;;;;6133622;23;19928;-77
2022/11/24 12:38:55;;;;;;;11.95;7.68;;;12.60;99.90;;;;;;6133165;23;20022;-76
2022/11/24 12:41:35;;;;;;;30.00;18.10;;;12.50;99.90;;;;;;6121630;23;20161;-78
2022/11/24 12:44:11;;;;;;;11.10;6.65;;;12.40;99.90;;;;;;6135012;23;20065;-80
2022/11/24 12:46:49;;;;;;;13.45;7.18;;;12.10;99.90;;;;;;6134341;23;20024;-79
2022/11/24 12:49:26;;;;;;;8.07;4.65;;;11.80;99.90;;;;;;6132512;23;20024;-79
2022/11/24 12:51:58;;;;;;;11.02;6.22;;;11.70;99.90;;;;;;6120706;23;20485;-79
2022/11/24 12:54:27;;;;;;;15.63;10.52;;;11.60;99.90;;;;;;6133195;23;20084;-78